Vanduser, Missouri
Current Conditions -  °F | °C
As of 9:53 AM on Thursday 23 Oct 2014 (Local Time) from KCGI Reporting Station
Clear Clear  
Wind Chill: 52°   Ceiling: Unl
Heat Index: 52°   Visibility: 10mi
Dew Point: 45°   Wind: 8mph
Humidity: 77%   Direction: 150°SSE
Pressure: 30.25"   Gusts: NA
Location:  36.99°N, 89.69°W
Report Text: KCGI 231453Z 15007KT 10SM CLR 11/07 A3025 RMK AO2 SLP245 60000 T01110072 51007
Loading
Personal Weather Stations






























Interactive Weather Map
Tropical Storm Tracking
New forecast layout! Learn more

10-Day Weather Forecast

Advertisements
Track Severe Weather on mobile